West Palm Beach, FL

11:14 AM EDT on April 28, 2015 (GMT -0400)
President Country Club West Palm Beach | | Change Station
CLOSE
Current Station
Personal Weather Station
Location: West Palm Beach, FL
Elevation: 60 ft
Nearby Weather Stations

Elev 60 ft 26.73 °N, 80.08 °W | Updated 1 minute ago

Mostly Cloudy
Mostly Cloudy
81.8 °F
Feels Like 89 °F
N
5.0
Wind Variable Wind from SE
Gusts 7.0 mph

Today
High -- | Low -- °F
--% Chance of Precip.
Yesterday
High -- | Low -- °F
Precip. -- in
6:44 AM 7:51 PM
Waxing Gibbous, 74% visible
Pressure 29.80 in
Visibility 10.0 miles
Clouds Mostly Cloudy 1800 ft
Mostly Cloudy 10000 ft
Mostly Cloudy 25000 ft
Heat Index 89 °F
Dew Point 76 °F
Humidity 84%
Rainfall 0.00 in
Snow Depth Not available.
UV 6 out of 12
Pollen 4.30 out of 12
Air Quality Not available.
Flu Activity Local Activity
SPECI KPBI 281502Z 17010KT 10SM BKN018 BKN100 BKN250 28/23 A2980 RMK AO2 T02780233

More Conditions Fewer Conditions

Pressure 29.80 in
Visibility 10.0 miles
Clouds Mostly Cloudy 1800 ft
Mostly Cloudy 10000 ft
Mostly Cloudy 25000 ft
Heat Index 89 °F
Dew Point 76 °F
Humidity 84%
Rainfall 0.00 in
Snow Depth Not available.
UV 6 out of 12
Pollen 4.30 out of 12
Air Quality Not available.
Flu Activity Local Activity
SPECI KPBI 281502Z 17010KT 10SM BKN018 BKN100 BKN250 28/23 A2980 RMK AO2 T02780233

More Conditions Fewer Conditions

10-Day Weather Forecast

Almanac

Astronomy

Apr. 28, 2015 Rise Set
Actual Time
Civil Twilight
Nautical Twilight
Astronomical Twilight
Moon
Length of Visible Light
Length of Day
Tomorrow will be .
, % of the Moon is Illuminated

Today's Extremes

State Highs State Lows

Community

WunderPhotos

Upload Photos

1,817,660 photos uploaded!

WunderBlogs® & News

Nearby

Air Quality

  Air Quality AQ Index Pollutant
Not available.

Snow Depth

Station Depth Elevation

Earthquake Activity

City Distance Mag. Time & Date
Minimum magnitude displayed is 2.5.

Coastal Water Temperatures

Place Temperature

Stations

Nearby Weather Stations

Station Location Temp. Windchill Dew Point Humidity Wind Precip. Elev Updated Type